Terminal Aerodrome Forecast
Issued by NWS Billings, MT

Home | Current Version | Previous Version | Graphics & Text | Print | Product List | Glossary On
Versions: 1 2 3 4 5 6 7 8 9 10 11 12 13 14 15 16 17 18 19 20 21 22 23 24 25 26 27 28 29 30
226
FTUS45 KBYZ 190529
TAFMLS
TAF
KMLS 190529Z 1906/2006 16008KT P6SM BKN100
     FM190900 31015G30KT P6SM VCSH SCT070 OVC100
     FM191300 33015G25KT P6SM VCSH SCT030 BKN050
     FM191800 31015G30KT P6SM VCSH SCT050 BKN080
     FM192200 27011KT P6SM SCT060=

USA.gov is the U.S. government's official web portal to all federal, state and local government web resources and services.